Time;durP1;ratioP1;P1;durP2;ratioP2;P2;SDS_P1;SDS_P2;PMS_P1;PMS_P2;Temp;Humidity;BMP_temperature;BMP_pressure;BME280_temperature;BME280_humidity;BME280_pressure;Samples;Min_cycle;Max_cycle;Signal;HPM_P1;HPM_P2
2022/02/07 00:00:20;;;;;;;3.43;0.83;;;5.00;99.90;;;;;;5086748;28;20680;-39
2022/02/07 00:03:31;;;;;;;2.10;0.60;;;5.10;99.90;;;;;;5086485;28;20680;-41
2022/02/07 00:05:38;;;;;;;1.43;0.70;;;4.80;99.90;;;;;;5084514;28;20450;-39
2022/02/07 00:08:05;;;;;;;3.03;0.67;;;5.00;99.90;;;;;;5083816;28;20418;-40
2022/02/07 00:10:31;;;;;;;2.10;0.83;;;5.00;99.90;;;;;;5081683;28;20858;-39
2022/02/07 00:12:57;;;;;;;1.40;0.80;;;5.10;99.90;;;;;;5087610;28;20469;-39
2022/02/07 00:15:22;;;;;;;1.73;1.10;;;4.80;99.90;;;;;;5088029;28;20192;-40
2022/02/07 00:17:48;;;;;;;2.43;1.03;;;4.70;99.90;;;;;;5088044;28;20784;-40
2022/02/07 00:20:20;;;;;;;3.03;0.63;;;4.90;99.90;;;;;;5087058;28;20219;-41
2022/02/07 00:22:47;;;;;;;1.53;0.70;;;4.80;99.90;;;;;;5087984;28;20196;-40
2022/02/07 00:25:14;;;;;;;3.43;1.00;;;4.70;99.90;;;;;;5077683;28;20524;-42
2022/02/07 00:27:40;;;;;;;4.90;1.00;;;4.80;99.90;;;;;;5087430;28;20882;-39
2022/02/07 00:30:08;;;;;;;3.50;0.70;;;4.80;99.90;;;;;;5087291;28;20425;-41
2022/02/07 00:32:35;;;;;;;4.60;1.00;;;4.40;99.90;;;;;;5087646;28;20473;-41
2022/02/07 00:35:01;;;;;;;2.43;0.80;;;4.30;99.90;;;;;;5085886;28;20817;-40
2022/02/07 00:37:29;;;;;;;3.93;1.17;;;4.20;99.90;;;;;;5087923;28;20555;-40
2022/02/07 00:40:04;;;;;;;2.20;0.83;;;4.40;99.90;;;;;;5076648;28;20432;-40
2022/02/07 00:42:34;;;;;;;3.77;1.00;;;4.40;99.90;;;;;;5087531;28;20451;-41
2022/02/07 00:45:03;;;;;;;4.53;0.80;;;4.30;99.90;;;;;;5087783;28;21059;-39
2022/02/07 00:47:29;;;;;;;4.03;1.10;;;4.60;99.90;;;;;;5087489;28;20434;-40
2022/02/07 00:49:56;;;;;;;2.03;1.00;;;4.40;99.90;;;;;;5087334;28;20440;-40
2022/02/07 00:52:23;;;;;;;3.87;1.00;;;4.50;99.90;;;;;;5087930;28;20303;-40
2022/02/07 00:54:50;;;;;;;1.87;0.90;;;4.60;99.90;;;;;;5073490;28;20435;-40
2022/02/07 00:57:15;;;;;;;2.43;0.63;;;4.60;99.90;;;;;;5083767;28;20914;-40
2022/02/07 00:59:41;;;;;;;4.43;1.37;;;4.40;99.90;;;;;;5086680;28;20473;-43
2022/02/07 01:02:07;;;;;;;4.37;0.93;;;4.60;99.90;;;;;;5087347;28;20226;-39
2022/02/07 01:04:32;;;;;;;2.23;0.90;;;4.40;99.90;;;;;;5087559;28;20216;-40
2022/02/07 01:06:58;;;;;;;5.07;1.13;;;4.30;99.90;;;;;;5085667;28;20262;-42
2022/02/07 01:09:30;;;;;;;4.57;1.07;;;4.60;99.90;;;;;;5069187;28;20247;-40
2022/02/07 01:12:09;;;;;;;3.53;0.93;;;4.40;99.90;;;;;;5080172;28;20238;-41
2022/02/07 01:20:26;;;;;;;3.20;0.90;;;4.50;99.90;;;;;;5070027;28;20418;-43
2022/02/07 01:53:11;;;;;;;7.70;1.50;;;4.60;99.90;;;;;;5023514;28;20833;-40
2022/02/07 01:55:42;;;;;;;3.13;1.53;;;4.70;99.90;;;;;;5066683;28;20545;-39
2022/02/07 01:58:10;;;;;;;5.10;1.67;;;4.60;99.90;;;;;;5086986;28;20426;-42
2022/02/07 02:00:38;;;;;;;5.73;1.43;;;4.60;99.90;;;;;;5086062;28;20513;-39
2022/02/07 02:03:04;;;;;;;8.93;1.30;;;4.80;99.90;;;;;;5090383;28;20426;-41
2022/02/07 02:05:39;;;;;;;9.07;1.40;;;4.70;99.90;;;;;;5090321;28;20507;-41
2022/02/07 02:08:10;;;;;;;4.00;1.60;;;4.90;99.90;;;;;;5080963;28;20438;-43
2022/02/07 02:10:38;;;;;;;7.03;1.43;;;4.70;99.90;;;;;;5075365;28;20439;-39
2022/02/07 02:13:12;;;;;;;5.53;1.60;;;4.90;99.90;;;;;;5090484;28;20826;-42
2022/02/07 02:15:51;;;;;;;3.83;1.10;;;4.50;99.90;;;;;;5089995;28;20923;-40
2022/02/07 02:37:51;;;;;;;8.97;2.07;;;4.90;99.90;;;;;;5090429;28;20505;-42
2022/02/07 02:45:32;;;;;;;4.60;1.30;;;4.80;99.90;;;;;;5089052;28;20249;-39
2022/02/07 02:48:06;;;;;;;8.53;1.77;;;4.80;99.90;;;;;;5089650;28;20430;-40
2022/02/07 02:50:35;;;;;;;6.60;1.70;;;4.90;99.90;;;;;;5089096;28;20943;-39
2022/02/07 02:53:07;;;;;;;5.20;1.47;;;4.90;99.90;;;;;;5089198;28;20491;-40
2022/02/07 02:55:35;;;;;;;5.70;1.57;;;5.00;99.90;;;;;;5079085;28;20447;-39
2022/02/07 02:58:01;;;;;;;7.10;1.73;;;4.90;99.90;;;;;;5089311;28;20501;-42
2022/02/07 03:00:28;;;;;;;4.10;1.60;;;4.80;99.90;;;;;;5088981;28;20923;-42
2022/02/07 03:02:54;;;;;;;6.87;2.07;;;4.90;99.90;;;;;;5089266;28;20422;-40
2022/02/07 03:05:20;;;;;;;8.13;2.43;;;5.00;99.90;;;;;;5089362;28;20445;-39
2022/02/07 03:07:46;;;;;;;5.20;1.67;;;4.80;99.90;;;;;;5081952;28;20181;-40
2022/02/07 03:10:23;;;;;;;5.57;2.13;;;4.70;99.90;;;;;;5069724;28;20446;-40
2022/02/07 03:18:21;;;;;;;10.33;2.27;;;4.70;99.90;;;;;;5088677;28;20518;-39
2022/02/07 03:20:47;;;;;;;8.23;1.70;;;4.80;99.90;;;;;;5088332;28;20501;-40
2022/02/07 03:23:13;;;;;;;8.20;1.90;;;4.90;99.90;;;;;;5089095;28;20227;-40
2022/02/07 03:25:39;;;;;;;6.73;2.17;;;4.90;99.90;;;;;;5081350;28;20430;-40
2022/02/07 03:28:05;;;;;;;3.90;1.87;;;5.20;99.90;;;;;;5088910;28;20434;-40
2022/02/07 03:30:31;;;;;;;9.10;1.70;;;5.00;99.90;;;;;;5086737;28;20430;-39
2022/02/07 03:32:57;;;;;;;7.80;2.23;;;4.90;99.90;;;;;;5088813;28;20200;-39
2022/02/07 03:35:22;;;;;;;8.10;1.93;;;5.10;99.90;;;;;;5088763;28;20431;-40
2022/02/07 03:37:48;;;;;;;7.27;2.17;;;5.00;99.90;;;;;;5089082;28;20453;-41
2022/02/07 03:40:14;;;;;;;7.57;2.30;;;4.90;99.90;;;;;;5078878;28;20605;-41
2022/02/07 03:42:40;;;;;;;10.50;2.27;;;4.90;99.90;;;;;;5081547;28;20188;-40
2022/02/07 03:45:06;;;;;;;7.77;2.00;;;4.90;99.90;;;;;;5088079;28;20810;-42
2022/02/07 03:47:32;;;;;;;6.50;2.00;;;4.80;99.90;;;;;;5088481;28;20267;-40
2022/02/07 03:49:58;;;;;;;11.97;2.97;;;4.80;99.90;;;;;;5087773;28;20418;-39
2022/02/07 03:52:26;;;;;;;13.90;3.00;;;4.90;99.90;;;;;;5088915;28;20462;-40
2022/02/07 03:54:53;;;;;;;14.80;3.20;;;4.90;99.90;;;;;;5084004;28;20446;-39
2022/02/07 03:57:18;;;;;;;8.87;2.80;;;4.80;99.90;;;;;;5082577;28;20446;-40
2022/02/07 03:59:44;;;;;;;7.57;2.13;;;4.80;99.90;;;;;;5087799;28;20425;-40
2022/02/07 04:02:10;;;;;;;7.87;3.40;;;4.80;99.90;;;;;;5088005;28;20310;-41
2022/02/07 04:04:36;;;;;;;7.80;2.60;;;4.70;99.90;;;;;;5088456;28;20254;-40
2022/02/07 04:07:04;;;;;;;2.90;1.70;;;4.70;99.90;;;;;;5086445;28;20633;-40
2022/02/07 04:09:35;;;;;;;5.07;2.17;;;4.90;99.90;;;;;;5087533;28;20793;-40
2022/02/07 04:12:09;;;;;;;6.13;3.43;;;4.90;99.90;;;;;;5075376;28;20457;-40
2022/02/07 04:14:35;;;;;;;7.03;2.13;;;4.70;99.90;;;;;;5087749;28;20445;-41
2022/02/07 04:17:01;;;;;;;7.50;2.07;;;4.60;99.90;;;;;;5087625;28;20422;-40
2022/02/07 04:19:33;;;;;;;4.77;1.40;;;4.70;99.90;;;;;;5088076;28;20444;-40
2022/02/07 04:22:01;;;;;;;4.10;1.40;;;4.90;99.90;;;;;;5087452;28;20214;-41
2022/02/07 04:24:26;;;;;;;8.23;2.13;;;4.90;99.90;;;;;;5087563;28;20430;-41
2022/02/07 04:26:52;;;;;;;7.27;1.80;;;4.80;99.90;;;;;;5078652;28;20445;-40
2022/02/07 04:29:18;;;;;;;5.90;2.40;;;4.90;99.90;;;;;;5086358;28;20588;-40
2022/02/07 04:31:44;;;;;;;6.00;1.97;;;4.90;99.90;;;;;;5086982;28;20239;-40
2022/02/07 04:34:09;;;;;;;9.63;3.90;;;4.80;99.90;;;;;;5088036;28;20204;-40
2022/02/07 04:36:35;;;;;;;10.00;2.83;;;4.70;99.90;;;;;;5087605;28;20180;-40
2022/02/07 04:39:01;;;;;;;6.67;2.20;;;4.70;99.90;;;;;;5087811;28;20283;-40
2022/02/07 04:41:26;;;;;;;9.00;2.20;;;4.70;99.90;;;;;;5077853;28;20185;-39
2022/02/07 04:44:02;;;;;;;12.43;3.23;;;4.70;99.90;;;;;;5087114;28;20188;-39
2022/02/07 04:46:41;;;;;;;5.53;2.00;;;4.70;99.90;;;;;;5084541;28;20195;-39
2022/02/07 04:57:16;;;;;;;7.03;2.77;;;4.70;99.90;;;;;;5050884;28;20446;-40
2022/02/07 04:59:54;;;;;;;5.20;2.03;;;4.70;99.90;;;;;;5086629;28;20450;-40
2022/02/07 05:16:01;;;;;;;10.43;1.83;;;5.00;99.90;;;;;;5084104;28;20434;-39
2022/02/07 05:18:30;;;;;;;8.83;2.50;;;4.90;99.90;;;;;;5080006;28;20454;-40
2022/02/07 05:20:56;;;;;;;8.93;3.37;;;5.00;99.90;;;;;;5086393;28;20192;-39
2022/02/07 05:23:21;;;;;;;11.27;2.47;;;5.00;99.90;;;;;;5087138;28;20427;-39
2022/02/07 05:25:47;;;;;;;7.60;2.00;;;4.90;99.90;;;;;;5080570;28;20423;-40
2022/02/07 05:28:13;;;;;;;11.20;2.23;;;5.00;99.90;;;;;;5081598;28;20277;-40
2022/02/07 05:30:39;;;;;;;11.67;2.20;;;5.10;99.90;;;;;;5086677;28;20423;-41
2022/02/07 05:33:04;;;;;;;6.77;1.73;;;5.00;99.90;;;;;;5087453;28;20815;-42
2022/02/07 05:35:30;;;;;;;5.70;1.77;;;5.10;99.90;;;;;;5086928;28;20216;-40
2022/02/07 05:37:56;;;;;;;7.90;2.63;;;4.90;99.90;;;;;;5090573;28;20187;-40
2022/02/07 05:40:41;;;;;;;11.40;3.50;;;5.20;99.90;;;;;;5087979;28;20418;-41
2022/02/07 05:43:08;;;;;;;10.00;2.30;;;5.00;99.90;;;;;;5086213;28;20291;-39
2022/02/07 05:45:34;;;;;;;8.40;2.53;;;5.00;99.90;;;;;;5090725;28;20826;-40
2022/02/07 05:48:00;;;;;;;7.30;2.63;;;5.20;99.90;;;;;;5090790;28;20430;-40
2022/02/07 05:50:26;;;;;;;9.50;2.60;;;5.00;99.90;;;;;;5089524;28;21011;-40
2022/02/07 05:52:51;;;;;;;12.90;3.23;;;5.10;99.90;;;;;;5090707;28;20212;-40
2022/02/07 05:55:17;;;;;;;7.93;2.30;;;5.10;99.90;;;;;;5089762;28;20280;-39
2022/02/07 05:57:43;;;;;;;10.00;2.13;;;4.90;99.90;;;;;;5067707;28;20207;-41
2022/02/07 06:00:10;;;;;;;10.20;2.80;;;4.90;99.90;;;;;;5089901;28;20464;-42
2022/02/07 06:02:36;;;;;;;21.33;3.00;;;5.00;99.90;;;;;;5090444;28;20274;-39
2022/02/07 06:05:02;;;;;;;6.67;1.90;;;5.00;99.90;;;;;;5090299;28;20564;-40
2022/02/07 06:07:27;;;;;;;14.30;2.43;;;5.10;99.90;;;;;;5089094;28;20438;-40
2022/02/07 06:09:53;;;;;;;15.20;3.20;;;5.10;99.90;;;;;;5090038;28;20478;-41
2022/02/07 06:12:19;;;;;;;12.27;2.67;;;4.90;99.90;;;;;;5076091;28;20220;-39
2022/02/07 06:14:45;;;;;;;9.60;2.80;;;4.90;99.90;;;;;;5090201;28;20199;-39
2022/02/07 06:17:11;;;;;;;7.63;2.93;;;5.00;99.90;;;;;;5090074;28;20192;-39
2022/02/07 06:19:37;;;;;;;8.03;3.00;;;4.90;99.90;;;;;;5089978;28;20196;-40
2022/02/07 06:22:03;;;;;;;9.30;3.07;;;5.10;99.90;;;;;;5089608;28;20449;-39
2022/02/07 06:24:29;;;;;;;12.60;3.10;;;5.30;99.90;;;;;;5090013;28;20437;-40
2022/02/07 06:26:55;;;;;;;9.53;2.50;;;5.20;99.90;;;;;;5080265;28;20963;-40
2022/02/07 06:29:20;;;;;;;18.00;3.20;;;5.10;99.90;;;;;;5090211;28;20196;-39
2022/02/07 06:31:47;;;;;;;9.43;2.20;;;5.10;99.90;;;;;;5089170;28;20629;-40
2022/02/07 06:34:12;;;;;;;8.50;2.90;;;4.90;99.90;;;;;;5088569;28;20486;-40
2022/02/07 06:36:38;;;;;;;13.07;4.40;;;5.00;99.90;;;;;;5089676;28;20434;-40
2022/02/07 06:39:04;;;;;;;10.67;2.70;;;5.20;99.90;;;;;;5087840;28;20554;-41
2022/02/07 06:41:29;;;;;;;6.13;2.50;;;5.00;99.90;;;;;;5079053;28;20196;-39
2022/02/07 06:43:55;;;;;;;12.30;3.07;;;5.00;99.90;;;;;;5084691;28;20744;-40
2022/02/07 06:46:20;;;;;;;8.33;2.87;;;4.90;99.90;;;;;;5087755;28;20608;-40
2022/02/07 06:48:46;;;;;;;10.90;2.90;;;4.80;99.90;;;;;;5088898;28;20297;-40
2022/02/07 06:51:12;;;;;;;8.57;2.40;;;4.90;99.90;;;;;;5088642;28;20200;-41
2022/02/07 06:53:38;;;;;;;16.27;2.40;;;4.80;99.90;;;;;;5089182;28;20467;-39
2022/02/07 06:56:05;;;;;;;14.50;2.97;;;4.80;99.90;;;;;;5085018;28;20867;-40
2022/02/07 06:58:31;;;;;;;9.37;2.50;;;5.00;99.90;;;;;;5085005;28;20972;-41
2022/02/07 07:00:59;;;;;;;16.80;2.93;;;5.20;99.90;;;;;;5086155;28;20765;-39
2022/02/07 07:03:25;;;;;;;9.30;2.80;;;5.10;99.90;;;;;;5089057;28;20435;-40
2022/02/07 07:05:52;;;;;;;14.47;3.47;;;5.10;99.90;;;;;;5088650;28;20511;-40
2022/02/07 07:08:18;;;;;;;12.40;3.03;;;5.20;99.90;;;;;;5087204;28;20446;-39
2022/02/07 07:10:46;;;;;;;12.00;2.87;;;5.20;99.90;;;;;;5089155;28;20426;-41
2022/02/07 07:13:21;;;;;;;8.83;2.40;;;5.00;99.90;;;;;;5079452;28;21047;-42
2022/02/07 07:16:00;;;;;;;11.10;3.00;;;5.00;99.90;;;;;;5086039;28;20445;-40
2022/02/07 07:18:26;;;;;;;7.73;3.20;;;5.20;99.90;;;;;;5086426;28;20426;-39
2022/02/07 07:20:51;;;;;;;10.83;3.80;;;5.00;99.90;;;;;;5086690;28;20488;-40
2022/02/07 07:23:17;;;;;;;14.77;3.37;;;5.10;99.90;;;;;;5087784;28;20188;-39
2022/02/07 07:25:46;;;;;;;14.27;2.80;;;5.20;99.90;;;;;;5087706;28;20639;-40
2022/02/07 07:28:14;;;;;;;13.60;3.17;;;5.10;99.90;;;;;;5081125;28;20199;-40
2022/02/07 07:30:49;;;;;;;9.97;2.13;;;5.20;99.90;;;;;;5086887;28;20422;-40
2022/02/07 07:33:19;;;;;;;18.83;2.70;;;5.10;99.90;;;;;;5088480;28;20497;-40
2022/02/07 07:35:45;;;;;;;8.13;3.57;;;5.20;99.90;;;;;;5086081;28;20499;-39
2022/02/07 07:38:11;;;;;;;11.43;2.80;;;5.30;99.90;;;;;;5088216;28;20704;-41
2022/02/07 07:40:37;;;;;;;7.33;2.77;;;5.30;99.90;;;;;;5087199;28;20199;-40
2022/02/07 07:43:05;;;;;;;10.47;2.93;;;5.20;99.90;;;;;;5079980;28;20207;-40
2022/02/07 07:45:34;;;;;;;12.73;2.80;;;5.10;99.90;;;;;;5086803;28;20227;-39
2022/02/07 07:48:04;;;;;;;13.13;3.00;;;5.30;99.90;;;;;;5086116;28;20434;-39
2022/02/07 07:53:24;;;;;;;7.93;2.97;;;5.40;99.90;;;;;;5075255;28;20490;-42
2022/02/07 08:02:09;;;;;;;11.40;2.70;;;5.70;99.90;;;;;;5087523;28;20452;-40
2022/02/07 08:04:13;;;;;;;15.07;4.00;;;5.90;99.90;;;;;;5079808;28;20437;-39
2022/02/07 08:09:44;;;;;;;6.83;2.93;;;5.80;99.90;;;;;;5088127;28;20426;-41
2022/02/07 08:12:11;;;;;;;7.53;2.43;;;6.10;99.90;;;;;;5081338;28;20478;-40
2022/02/07 08:14:37;;;;;;;9.97;2.17;;;6.00;99.90;;;;;;5079614;28;20425;-40
2022/02/07 08:17:04;;;;;;;8.23;2.37;;;6.20;99.90;;;;;;5087733;28;20430;-40
2022/02/07 08:19:31;;;;;;;8.90;2.63;;;6.50;99.90;;;;;;5088095;28;20529;-40
2022/02/07 08:21:57;;;;;;;7.37;1.97;;;6.30;99.90;;;;;;5087092;28;20695;-39
2022/02/07 08:24:23;;;;;;;8.60;1.90;;;6.80;99.90;;;;;;5087869;28;20626;-41
2022/02/07 08:26:52;;;;;;;5.37;1.90;;;6.90;99.90;;;;;;5082140;28;20439;-40
2022/02/07 08:29:18;;;;;;;6.13;2.13;;;6.90;99.90;;;;;;5077709;28;20653;-41
2022/02/07 08:31:43;;;;;;;4.90;1.70;;;7.10;99.90;;;;;;5086866;28;20462;-39
2022/02/07 08:34:09;;;;;;;6.80;1.67;;;7.10;99.90;;;;;;5087641;28;20414;-42
2022/02/07 08:36:35;;;;;;;5.37;1.83;;;7.30;99.90;;;;;;5088359;28;20271;-41
2022/02/07 08:39:02;;;;;;;7.27;2.00;;;7.20;99.90;;;;;;5087708;28;20212;-41
2022/02/07 08:41:28;;;;;;;8.47;2.40;;;7.20;99.90;;;;;;5086895;28;20882;-40
2022/02/07 08:43:54;;;;;;;4.20;1.70;;;7.00;99.90;;;;;;5080229;28;20426;-40
2022/02/07 08:46:21;;;;;;;6.37;1.73;;;6.70;99.90;;;;;;5087726;28;20434;-40
2022/02/07 08:48:47;;;;;;;7.60;2.20;;;6.70;99.90;;;;;;5087394;28;20463;-40
2022/02/07 08:51:14;;;;;;;5.60;2.57;;;6.60;99.90;;;;;;5086710;28;20493;-40
2022/02/07 08:53:43;;;;;;;12.13;2.70;;;6.40;99.90;;;;;;5087263;28;20491;-40
2022/02/07 08:56:09;;;;;;;8.43;2.60;;;6.50;99.90;;;;;;5087321;28;20501;-40
2022/02/07 08:58:38;;;;;;;14.60;2.97;;;6.40;99.90;;;;;;5075463;28;20441;-40
2022/02/07 09:06:16;;;;;;;11.73;3.27;;;6.40;99.90;;;;;;5087475;28;20786;-39
2022/02/07 09:11:08;;;;;;;14.70;2.80;;;6.50;99.90;;;;;;5088995;28;20465;-40
2022/02/07 09:13:37;;;;;;;10.77;3.00;;;6.40;99.90;;;;;;5082026;28;20216;-39
2022/02/07 09:16:16;;;;;;;12.57;3.30;;;6.60;99.90;;;;;;5089995;28;20438;-40
2022/02/07 09:18:46;;;;;;;10.17;2.97;;;6.60;99.90;;;;;;5091305;28;20473;-39
2022/02/07 09:21:14;;;;;;;9.43;3.73;;;6.30;99.90;;;;;;5090960;28;20493;-41
2022/02/07 09:23:41;;;;;;;7.63;3.17;;;6.30;99.90;;;;;;5091405;28;20800;-40
2022/02/07 09:26:07;;;;;;;10.13;3.47;;;6.50;99.90;;;;;;5091312;28;20462;-40
2022/02/07 09:28:33;;;;;;;9.60;3.50;;;6.60;99.90;;;;;;5081171;28;20482;-39
2022/02/07 09:30:59;;;;;;;10.43;3.63;;;6.60;99.90;;;;;;5090331;28;20525;-39
2022/02/07 09:33:25;;;;;;;9.47;3.90;;;6.70;99.90;;;;;;5086744;28;20531;-40
2022/02/07 09:35:52;;;;;;;10.53;3.50;;;6.60;99.90;;;;;;5090879;28;20612;-40
2022/02/07 09:38:19;;;;;;;9.30;3.80;;;6.60;99.90;;;;;;5091327;28;20184;-42
2022/02/07 09:40:53;;;;;;;15.00;5.33;;;6.60;99.90;;;;;;5090397;28;20430;-40
2022/02/07 09:43:20;;;;;;;13.83;3.93;;;6.60;99.90;;;;;;5080676;28;20438;-40
2022/02/07 09:45:49;;;;;;;6.50;3.03;;;6.80;99.90;;;;;;5089229;28;20414;-40
2022/02/07 09:48:16;;;;;;;11.93;4.07;;;6.60;99.90;;;;;;5091159;28;20435;-40
2022/02/07 09:50:43;;;;;;;13.10;4.77;;;6.80;99.90;;;;;;5090289;28;20430;-40
2022/02/07 09:53:09;;;;;;;13.30;3.73;;;6.90;99.90;;;;;;5090810;28;20473;-40
2022/02/07 09:55:36;;;;;;;16.00;4.03;;;6.70;99.90;;;;;;5089562;28;20798;-40
2022/02/07 09:58:02;;;;;;;10.27;3.87;;;6.70;99.90;;;;;;5086926;28;20571;-40
2022/02/07 10:00:31;;;;;;;14.53;3.67;;;6.70;99.90;;;;;;5087836;28;20422;-40
2022/02/07 10:03:25;;;;;;;14.53;4.10;;;6.80;99.90;;;;;;5090484;28;20437;-40
2022/02/07 10:06:00;;;;;;;12.63;4.07;;;7.10;99.90;;;;;;5090752;28;20822;-40
2022/02/07 10:08:50;;;;;;;11.50;3.93;;;7.00;99.90;;;;;;5079457;28;20835;-40
2022/02/07 10:11:26;;;;;;;16.03;3.43;;;7.10;99.90;;;;;;5077150;28;20512;-40
2022/02/07 10:14:07;;;;;;;22.63;6.10;;;7.10;99.90;;;;;;5078987;28;21025;-40
2022/02/07 10:42:00;;;;;;;11.57;3.13;;;8.10;99.90;;;;;;5089151;28;20709;-40
2022/02/07 10:44:33;;;;;;;12.07;3.10;;;7.70;99.90;;;;;;5075193;28;20442;-41
2022/02/07 10:47:07;;;;;;;13.20;3.80;;;7.60;99.90;;;;;;5090062;28;20465;-40
2022/02/07 10:49:33;;;;;;;12.73;3.63;;;7.60;99.90;;;;;;5089373;28;20430;-40
2022/02/07 10:52:00;;;;;;;12.67;3.20;;;7.70;99.90;;;;;;5089665;28;20458;-40
2022/02/07 10:54:27;;;;;;;10.93;3.97;;;7.80;99.90;;;;;;5088417;28;20184;-40
2022/02/07 10:56:53;;;;;;;13.57;3.60;;;7.80;99.90;;;;;;5089496;28;20446;-41
2022/02/07 10:59:21;;;;;;;13.03;4.20;;;7.90;99.90;;;;;;5075962;28;20465;-40
2022/02/07 11:04:29;;;;;;;9.77;2.83;;;8.00;99.90;;;;;;5089746;28;20823;-40
2022/02/07 11:07:02;;;;;;;12.13;3.20;;;8.00;99.90;;;;;;5089425;28;20479;-41
2022/02/07 11:20:27;;;;;;;11.83;3.70;;;8.20;99.90;;;;;;5088304;28;20550;-41
2022/02/07 11:23:08;;;;;;;14.13;3.00;;;8.20;99.90;;;;;;5088898;28;20426;-40
2022/02/07 11:25:54;;;;;;;10.90;3.50;;;8.00;99.90;;;;;;5088898;28;20519;-41
2022/02/07 11:28:25;;;;;;;13.40;3.97;;;7.90;99.90;;;;;;5081774;28;20439;-39
2022/02/07 11:30:58;;;;;;;11.80;4.17;;;8.00;99.90;;;;;;5082343;28;20419;-40
2022/02/07 11:33:42;;;;;;;12.77;3.40;;;8.20;99.90;;;;;;5088099;28;20570;-42
2022/02/07 11:36:35;;;;;;;9.33;3.00;;;8.00;99.90;;;;;;5088560;28;20442;-40
2022/02/07 11:39:12;;;;;;;10.60;3.80;;;7.90;99.90;;;;;;5070702;28;20476;-40
2022/02/07 11:41:55;;;;;;;17.40;3.90;;;8.10;99.90;;;;;;5088023;28;20509;-43
2022/02/07 11:44:48;;;;;;;14.57;4.03;;;8.00;99.90;;;;;;5075182;28;20849;-40
2022/02/07 11:47:29;;;;;;;10.87;2.87;;;8.00;99.90;;;;;;5087348;28;20426;-40
2022/02/07 11:50:02;;;;;;;15.30;4.83;;;8.00;99.90;;;;;;5088009;28;20426;-40
2022/02/07 11:52:50;;;;;;;10.67;3.10;;;7.80;99.90;;;;;;5088428;28;20907;-41
2022/02/07 11:55:19;;;;;;;6.27;2.60;;;7.90;99.90;;;;;;5076858;28;20912;-40
2022/02/07 11:58:01;;;;;;;8.83;2.67;;;7.80;99.90;;;;;;5088448;28;20418;-42
2022/02/07 12:00:32;;;;;;;19.03;3.13;;;7.60;99.90;;;;;;5080062;28;20733;-40
2022/02/07 12:03:04;;;;;;;9.30;2.73;;;8.00;99.90;;;;;;5086766;28;20501;-41
2022/02/07 12:05:31;;;;;;;14.20;3.60;;;7.60;99.90;;;;;;5088189;28;20426;-41
2022/02/07 12:08:13;;;;;;;12.83;3.57;;;7.70;99.90;;;;;;5088034;28;20598;-41
2022/02/07 12:10:47;;;;;;;13.53;4.57;;;7.90;99.90;;;;;;5087679;28;20422;-41
2022/02/07 12:13:29;;;;;;;9.07;3.00;;;7.90;99.90;;;;;;5084906;28;20534;-41
2022/02/07 12:15:58;;;;;;;9.10;2.73;;;8.00;99.90;;;;;;5085457;28;20430;-41
2022/02/07 12:18:25;;;;;;;10.10;2.73;;;8.00;99.90;;;;;;5087654;28;20422;-41
2022/02/07 12:20:54;;;;;;;14.57;3.30;;;8.00;99.90;;;;;;5087192;28;20429;-40
2022/02/07 12:23:26;;;;;;;6.53;2.87;;;8.50;99.90;;;;;;5087858;28;20483;-41
2022/02/07 12:26:00;;;;;;;8.70;3.70;;;8.60;99.90;;;;;;5075306;28;20445;-40
2022/02/07 12:28:39;;;;;;;8.50;3.10;;;8.80;99.90;;;;;;5083019;28;20430;-40
2022/02/07 12:33:35;;;;;;;9.57;2.83;;;9.40;99.90;;;;;;5087496;28;20470;-42
2022/02/07 12:36:01;;;;;;;10.30;2.90;;;9.40;99.90;;;;;;5087983;28;20433;-41
2022/02/07 12:38:35;;;;;;;15.60;2.90;;;9.60;99.90;;;;;;5087446;28;20752;-40
2022/02/07 12:41:08;;;;;;;10.90;2.67;;;9.60;99.90;;;;;;5086826;28;20467;-41
2022/02/07 12:43:35;;;;;;;5.27;2.17;;;9.60;99.90;;;;;;5083637;28;20886;-42
2022/02/07 12:46:03;;;;;;;9.17;1.90;;;10.00;99.90;;;;;;5079725;28;20437;-43
2022/02/07 12:48:32;;;;;;;10.90;2.47;;;9.80;99.90;;;;;;5087451;28;20987;-40
2022/02/07 12:50:58;;;;;;;6.00;2.67;;;10.00;99.90;;;;;;5087012;28;20422;-40
2022/02/07 12:53:25;;;;;;;13.20;3.57;;;9.70;99.90;;;;;;5087564;28;20511;-42
2022/02/07 12:55:57;;;;;;;7.73;2.10;;;9.40;99.90;;;;;;5087377;28;20204;-43
2022/02/07 12:58:32;;;;;;;9.67;3.33;;;9.30;99.90;;;;;;5086977;28;20430;-41
2022/02/07 13:00:57;;;;;;;11.43;3.50;;;9.30;99.90;;;;;;5078642;28;20413;-42
2022/02/07 13:03:23;;;;;;;10.20;3.30;;;9.20;99.90;;;;;;5087421;28;20430;-40
2022/02/07 13:05:50;;;;;;;9.60;4.03;;;9.20;99.90;;;;;;5087069;28;20194;-44
2022/02/07 13:08:17;;;;;;;16.30;3.30;;;9.30;99.90;;;;;;5077989;28;20254;-40
2022/02/07 13:10:52;;;;;;;6.50;2.40;;;9.40;99.90;;;;;;5083078;28;20446;-40
2022/02/07 13:13:29;;;;;;;7.33;2.37;;;9.50;99.90;;;;;;5087402;28;20622;-41
2022/02/07 13:15:57;;;;;;;7.60;3.47;;;9.20;99.90;;;;;;5075091;28;20434;-40
2022/02/07 13:18:23;;;;;;;13.87;2.80;;;9.30;99.90;;;;;;5087041;28;20770;-42
2022/02/07 13:20:51;;;;;;;9.30;3.43;;;9.30;99.90;;;;;;5086472;28;20438;-41
2022/02/07 13:23:18;;;;;;;5.23;2.73;;;9.20;99.90;;;;;;5087123;28;20495;-43
2022/02/07 13:25:54;;;;;;;4.70;2.80;;;8.70;99.90;;;;;;5087292;28;20800;-40
2022/02/07 13:28:26;;;;;;;6.17;3.07;;;8.60;99.90;;;;;;5086413;28;20426;-40
2022/02/07 13:30:54;;;;;;;18.17;5.10;;;8.60;99.90;;;;;;5077921;28;20467;-40
2022/02/07 13:33:21;;;;;;;10.20;3.27;;;8.50;99.90;;;;;;5087096;28;20466;-41
2022/02/07 13:35:51;;;;;;;15.10;4.10;;;8.30;99.90;;;;;;5087208;28;20423;-40
2022/02/07 13:38:18;;;;;;;8.07;3.70;;;8.10;99.90;;;;;;5087405;28;20427;-40
2022/02/07 13:40:47;;;;;;;11.23;4.40;;;8.00;99.90;;;;;;5086538;28;20963;-42
2022/02/07 13:43:20;;;;;;;9.63;5.43;;;8.30;99.90;;;;;;5087127;28;20450;-42
2022/02/07 13:45:55;;;;;;;13.33;4.30;;;8.20;99.90;;;;;;5076736;28;20473;-40
2022/02/07 13:48:23;;;;;;;12.67;4.57;;;7.90;99.90;;;;;;5085462;28;20413;-41
2022/02/07 13:50:54;;;;;;;9.67;5.00;;;7.90;99.90;;;;;;5085239;28;20461;-44
2022/02/07 13:53:22;;;;;;;14.53;4.93;;;7.90;99.90;;;;;;5086667;28;20735;-42
2022/02/07 13:55:57;;;;;;;11.80;5.30;;;7.90;99.90;;;;;;5086650;28;20583;-40
2022/02/07 13:58:37;;;;;;;13.03;5.40;;;7.90;99.90;;;;;;5089564;28;20418;-42
2022/02/07 14:01:08;;;;;;;16.37;5.63;;;7.90;99.90;;;;;;5082373;28;20450;-41
2022/02/07 14:03:37;;;;;;;11.73;4.83;;;7.90;99.90;;;;;;5090510;28;20454;-40
2022/02/07 14:06:15;;;;;;;11.47;4.73;;;7.90;99.90;;;;;;5090415;28;20818;-41
2022/02/07 14:08:57;;;;;;;9.63;4.30;;;7.90;99.90;;;;;;5089255;28;20798;-40
2022/02/07 14:11:30;;;;;;;8.40;4.20;;;8.10;99.90;;;;;;5078203;28;20440;-41
2022/02/07 14:14:02;;;;;;;12.13;4.70;;;8.10;99.90;;;;;;5088821;28;20481;-40
2022/02/07 14:16:28;;;;;;;6.97;3.70;;;8.20;99.90;;;;;;5082387;28;20821;-40
2022/02/07 14:18:55;;;;;;;6.87;3.70;;;8.20;99.90;;;;;;5088575;28;20522;-42
2022/02/07 14:21:24;;;;;;;7.43;3.53;;;8.30;99.90;;;;;;5090007;28;20505;-41
2022/02/07 14:23:52;;;;;;;12.40;5.10;;;8.40;99.90;;;;;;5090270;28;20521;-40
2022/02/07 14:26:20;;;;;;;9.43;4.07;;;8.40;99.90;;;;;;5090265;28;20441;-42
2022/02/07 14:28:51;;;;;;;6.83;3.10;;;8.50;99.90;;;;;;5089008;28;20795;-40
2022/02/07 14:31:17;;;;;;;6.43;2.40;;;8.20;99.90;;;;;;5080663;28;20456;-41
2022/02/07 14:33:43;;;;;;;9.67;3.13;;;8.00;99.90;;;;;;5088475;28;20832;-43
2022/02/07 14:36:09;;;;;;;9.40;3.50;;;8.30;99.90;;;;;;5090166;28;20438;-40
2022/02/07 14:38:36;;;;;;;9.07;2.90;;;8.00;99.90;;;;;;5089923;28;20195;-44
2022/02/07 14:41:05;;;;;;;10.53;3.43;;;8.10;99.90;;;;;;5089448;28;20422;-40
2022/02/07 14:43:33;;;;;;;5.40;2.90;;;8.10;99.90;;;;;;5089784;28;20529;-39
2022/02/07 14:48:30;;;;;;;10.23;3.20;;;7.90;99.90;;;;;;5088798;28;20458;-39
2022/02/07 14:50:56;;;;;;;18.07;3.60;;;8.00;99.90;;;;;;5089301;28;20426;-40
2022/02/07 14:53:22;;;;;;;10.87;3.30;;;7.80;99.90;;;;;;5089661;28;20585;-40
2022/02/07 14:55:49;;;;;;;6.43;3.00;;;7.70;99.90;;;;;;5089622;28;20431;-43
2022/02/07 14:58:14;;;;;;;8.37;2.67;;;8.10;99.90;;;;;;5089454;28;20414;-41
2022/02/07 15:00:40;;;;;;;6.23;2.67;;;7.90;99.90;;;;;;5078883;28;20435;-41
2022/02/07 15:03:07;;;;;;;6.77;3.80;;;7.70;99.90;;;;;;5089401;28;20192;-44
2022/02/07 15:05:34;;;;;;;8.37;3.80;;;7.70;99.90;;;;;;5088252;28;20197;-42
2022/02/07 15:08:01;;;;;;;9.30;4.00;;;7.70;99.90;;;;;;5089240;28;20449;-44
2022/02/07 15:10:28;;;;;;;6.00;3.00;;;7.70;99.90;;;;;;5088838;28;20478;-43
2022/02/07 15:12:54;;;;;;;5.00;3.60;;;7.70;99.90;;;;;;5088992;28;20458;-40
2022/02/07 15:15:21;;;;;;;6.20;2.90;;;7.70;99.90;;;;;;5080053;28;20439;-41
2022/02/07 15:17:47;;;;;;;10.00;3.60;;;7.60;99.90;;;;;;5089126;28;20422;-40
2022/02/07 15:20:14;;;;;;;9.43;3.10;;;7.70;99.90;;;;;;5088384;28;20476;-40
2022/02/07 15:22:46;;;;;;;12.40;3.10;;;7.60;99.90;;;;;;5089192;28;20429;-41
2022/02/07 15:25:17;;;;;;;10.03;4.00;;;7.80;99.90;;;;;;5084598;28;20430;-40
2022/02/07 15:27:44;;;;;;;8.50;2.97;;;7.60;99.90;;;;;;5087670;28;20449;-40
2022/02/07 15:30:11;;;;;;;5.33;2.73;;;7.70;99.90;;;;;;5081253;28;20746;-41
2022/02/07 15:32:39;;;;;;;6.17;3.63;;;7.80;99.90;;;;;;5080810;28;20471;-41